createdAt,value
2018-02-16T00:01:51.437Z,7.13
2018-02-16T00:04:19.831Z,6.80
2018-02-16T00:06:48.204Z,7.00
2018-02-16T00:09:16.590Z,8.00
2018-02-16T00:11:44.965Z,7.10
2018-02-16T00:14:13.328Z,7.50
2018-02-16T00:16:41.719Z,7.43
2018-02-16T00:19:10.084Z,6.47
2018-02-16T00:21:38.472Z,6.37
2018-02-16T00:24:06.840Z,7.07
2018-02-16T00:26:35.967Z,6.77
2018-02-16T00:29:04.438Z,6.33
2018-02-16T00:31:32.930Z,7.40
2018-02-16T00:34:01.373Z,5.93
2018-02-16T00:36:29.762Z,7.30
2018-02-16T00:38:58.173Z,6.73
2018-02-16T00:41:26.699Z,6.70
2018-02-16T00:43:55.063Z,7.77
2018-02-16T00:46:23.758Z,7.53
2018-02-16T00:48:52.128Z,6.57
2018-02-16T00:51:20.508Z,7.83
2018-02-16T00:53:48.900Z,7.47
2018-02-16T00:56:17.264Z,8.00
2018-02-16T00:58:45.943Z,7.50
2018-02-16T01:01:14.316Z,8.23
2018-02-16T01:03:42.675Z,9.07
2018-02-16T01:06:11.864Z,9.40
2018-02-16T01:08:40.231Z,7.80
2018-02-16T01:11:08.948Z,9.00
2018-02-16T01:13:37.321Z,7.80
2018-02-16T01:16:06.456Z,8.73
2018-02-16T01:18:35.119Z,8.40
2018-02-16T01:21:04.452Z,8.30
2018-02-16T01:23:32.824Z,9.03
2018-02-16T01:26:01.300Z,8.77
2018-02-16T01:28:29.666Z,10.27
2018-02-16T01:30:58.044Z,8.43
2018-02-16T01:33:26.436Z,10.13
2018-02-16T01:35:54.904Z,6.33
2018-02-16T01:38:23.269Z,10.90
2018-02-16T01:40:51.730Z,8.90
2018-02-16T01:43:20.956Z,7.90
2018-02-16T01:45:49.332Z,6.57
2018-02-16T01:48:17.715Z,8.97
2018-02-16T01:50:46.100Z,9.70
2018-02-16T01:53:14.462Z,8.93
2018-02-16T01:55:42.845Z,8.40
2018-02-16T01:58:11.206Z,7.33
2018-02-16T02:00:39.573Z,8.30
2018-02-16T02:03:08.759Z,8.77
2018-02-16T02:05:37.908Z,9.73
2018-02-16T02:08:06.281Z,8.80
2018-02-16T02:10:34.667Z,8.63
2018-02-16T02:13:03.039Z,7.13
2018-02-16T02:15:31.396Z,8.17
2018-02-16T02:17:59.779Z,8.30
2018-02-16T02:20:28.143Z,9.10
2018-02-16T02:22:56.514Z,9.27
2018-02-16T02:25:25.915Z,9.80
2018-02-16T02:27:54.731Z,9.83
2018-02-16T02:30:23.100Z,8.57
2018-02-16T02:32:51.504Z,8.07
2018-02-16T02:35:20.651Z,7.87
2018-02-16T02:37:50.147Z,9.20
2018-02-16T02:40:19.340Z,9.63
2018-02-16T02:42:47.720Z,11.23
2018-02-16T02:45:16.972Z,8.30
2018-02-16T02:47:45.363Z,9.50
2018-02-16T02:50:13.830Z,8.30
2018-02-16T02:52:42.209Z,9.20
2018-02-16T02:55:10.603Z,9.30
2018-02-16T02:57:39.069Z,8.40
2018-02-16T03:00:07.447Z,9.10
2018-02-16T03:02:35.831Z,8.70
2018-02-16T03:05:04.222Z,9.37
2018-02-16T03:07:32.591Z,9.00
2018-02-16T03:10:00.975Z,7.97
2018-02-16T03:12:29.372Z,7.63
2018-02-16T03:14:57.751Z,7.40
2018-02-16T03:17:26.129Z,8.40
2018-02-16T03:19:54.508Z,7.20
2018-02-16T03:22:22.885Z,8.40
2018-02-16T03:24:51.280Z,7.73
2018-02-16T03:27:19.636Z,8.20
2018-02-16T03:29:48.007Z,8.30
2018-02-16T03:32:16.391Z,7.67
2018-02-16T03:34:44.791Z,8.87
2018-02-16T03:37:13.937Z,7.40
2018-02-16T03:39:42.329Z,9.20
2018-02-16T03:42:10.793Z,8.20
2018-02-16T03:44:39.154Z,7.67
2018-02-16T03:47:07.616Z,7.90
2018-02-16T03:49:35.999Z,7.40
2018-02-16T03:52:05.133Z,7.30
2018-02-16T03:54:33.526Z,7.80
2018-02-16T03:57:01.888Z,9.00
2018-02-16T03:59:30.260Z,8.13
2018-02-16T04:01:58.927Z,8.17
2018-02-16T04:04:27.291Z,8.10
2018-02-16T04:06:56.417Z,7.50
2018-02-16T04:09:24.808Z,6.00
2018-02-16T04:11:53.174Z,8.43
2018-02-16T04:14:21.206Z,4.30
2018-02-16T04:16:50.359Z,5.80
2018-02-16T04:19:18.616Z,6.90
2018-02-16T04:21:46.996Z,7.47
2018-02-16T04:24:15.394Z,5.73
2018-02-16T04:26:43.763Z,7.03
2018-02-16T04:29:12.125Z,6.63
2018-02-16T04:31:40.551Z,6.73
2018-02-16T04:34:08.920Z,6.63
2018-02-16T04:36:37.293Z,8.80
2018-02-16T04:39:05.296Z,8.30
2018-02-16T04:41:34.424Z,7.60
2018-02-16T04:44:02.792Z,7.00
2018-02-16T04:46:31.181Z,8.23
2018-02-16T04:48:59.544Z,8.33
2018-02-16T04:51:27.903Z,6.40
2018-02-16T04:53:57.051Z,7.10
2018-02-16T04:56:25.419Z,6.27
2018-02-16T04:58:53.800Z,6.80
2018-02-16T05:01:22.443Z,6.70
2018-02-16T05:03:51.573Z,7.27
2018-02-16T05:06:19.955Z,7.23
2018-02-16T05:08:48.356Z,7.23
2018-02-16T05:11:17.482Z,7.27
2018-02-16T05:13:46.617Z,7.40
2018-02-16T05:16:15.281Z,7.50
2018-02-16T05:18:43.636Z,5.90
2018-02-16T05:21:11.997Z,6.77
2018-02-16T05:23:40.395Z,6.20
2018-02-16T05:26:09.524Z,7.47
2018-02-16T05:28:37.899Z,6.00
2018-02-16T05:31:06.332Z,6.03
2018-02-16T05:33:34.700Z,6.47
2018-02-16T05:36:03.070Z,6.60
2018-02-16T05:38:31.463Z,7.60
2018-02-16T05:40:59.819Z,6.30
2018-02-16T05:43:28.188Z,6.83
2018-02-16T05:45:56.840Z,5.50
2018-02-16T05:48:25.214Z,4.90
2018-02-16T05:50:54.360Z,6.37
2018-02-16T05:53:22.787Z,5.90
2018-02-16T05:55:51.914Z,3.83
2018-02-16T05:58:20.319Z,4.53
2018-02-16T06:00:48.717Z,5.53
2018-02-16T06:03:17.075Z,3.23
2018-02-16T06:05:45.475Z,5.37
2018-02-16T06:08:13.858Z,4.40
2018-02-16T06:10:42.221Z,5.70
2018-02-16T06:13:10.668Z,2.83
2018-02-16T06:15:39.155Z,5.53
2018-02-16T06:18:08.288Z,4.57
2018-02-16T06:20:36.656Z,5.70
2018-02-16T06:23:05.027Z,5.50
2018-02-16T06:25:33.393Z,7.50
2018-02-16T06:28:01.806Z,4.80
2018-02-16T06:30:30.210Z,6.77
2018-02-16T06:32:58.572Z,5.33
2018-02-16T06:35:27.748Z,6.13
2018-02-16T06:37:56.177Z,5.03
2018-02-16T06:40:24.547Z,5.20
2018-02-16T06:42:52.918Z,7.60
2018-02-16T06:45:21.333Z,5.90
2018-02-16T06:47:49.712Z,6.30
2018-02-16T06:50:18.084Z,6.50
2018-02-16T06:52:46.472Z,6.83
2018-02-16T06:55:14.884Z,5.60
2018-02-16T06:57:43.522Z,4.20
2018-02-16T07:00:11.912Z,5.47
2018-02-16T07:02:41.300Z,5.00
2018-02-16T07:05:09.665Z,5.33
2018-02-16T07:07:38.107Z,4.60
2018-02-16T07:10:06.488Z,4.77
2018-02-16T07:12:35.120Z,4.60
2018-02-16T07:15:03.926Z,6.37
2018-02-16T07:17:32.291Z,6.10
2018-02-16T07:20:00.679Z,8.23
2018-02-16T07:22:29.086Z,8.57
2018-02-16T07:24:57.458Z,6.53
2018-02-16T07:27:25.828Z,6.00
2018-02-16T07:29:54.332Z,5.73
2018-02-16T07:32:23.468Z,5.20
2018-02-16T07:34:51.836Z,5.20
2018-02-16T07:37:20.222Z,4.20
2018-02-16T07:39:48.586Z,5.67
2018-02-16T07:42:16.951Z,4.27
2018-02-16T07:44:46.117Z,3.60
2018-02-16T07:47:14.496Z,4.90
2018-02-16T07:49:42.864Z,3.93
2018-02-16T07:52:11.240Z,4.27
2018-02-16T07:54:39.597Z,5.90
2018-02-16T07:57:07.992Z,4.57
2018-02-16T07:59:36.376Z,4.87
2018-02-16T08:02:05.535Z,4.60
2018-02-16T08:04:33.891Z,4.00
2018-02-16T08:07:03.058Z,4.67
2018-02-16T08:09:31.485Z,4.93
2018-02-16T08:11:59.864Z,4.57
2018-02-16T08:14:28.223Z,5.10
2018-02-16T08:16:56.659Z,6.70
2018-02-16T08:19:25.195Z,5.50
2018-02-16T08:21:53.572Z,4.73
2018-02-16T08:24:21.951Z,5.73
2018-02-16T08:26:50.303Z,4.50
2018-02-16T08:29:18.688Z,5.00
2018-02-16T08:31:47.812Z,5.00
2018-02-16T08:34:15.864Z,5.23
2018-02-16T08:36:44.228Z,5.07
2018-02-16T08:39:13.380Z,6.33
2018-02-16T08:41:41.761Z,5.33
2018-02-16T08:44:10.140Z,6.80
2018-02-16T08:46:38.504Z,6.53
2018-02-16T08:49:06.895Z,6.20
2018-02-16T08:51:35.264Z,5.27
2018-02-16T08:54:03.645Z,4.20
2018-02-16T08:56:32.073Z,5.00
2018-02-16T08:59:00.607Z,6.70
2018-02-16T09:01:28.975Z,5.50
2018-02-16T09:03:57.340Z,4.47
2018-02-16T09:06:25.709Z,6.57
2018-02-16T09:08:54.079Z,5.90
2018-02-16T09:11:22.496Z,5.40
2018-02-16T09:13:50.873Z,6.77
2018-02-16T09:16:19.252Z,4.97
2018-02-16T09:18:47.650Z,5.53
2018-02-16T09:21:16.035Z,5.33
2018-02-16T09:23:44.395Z,6.20
2018-02-16T09:26:13.543Z,6.47
2018-02-16T09:28:41.963Z,4.90
2018-02-16T09:31:10.342Z,5.93
2018-02-16T09:33:38.763Z,6.53
2018-02-16T09:36:09.115Z,4.87
2018-02-16T09:38:37.582Z,5.53
2018-02-16T09:41:05.976Z,5.63
2018-02-16T09:43:34.351Z,4.60
2018-02-16T09:46:02.732Z,5.27
2018-02-16T09:48:31.132Z,4.40
2018-02-16T09:50:59.521Z,5.40
2018-02-16T09:53:27.892Z,5.80
2018-02-16T09:55:56.276Z,5.67
2018-02-16T09:58:24.459Z,6.97
2018-02-16T10:00:52.848Z,6.30
2018-02-16T10:03:21.410Z,5.80
2018-02-16T10:05:49.804Z,7.43
2018-02-16T10:08:18.169Z,6.23
2018-02-16T10:10:46.544Z,7.80
2018-02-16T10:13:14.719Z,6.70
2018-02-16T10:15:43.123Z,6.57
2018-02-16T10:18:11.491Z,6.97
2018-02-16T10:20:39.869Z,8.00
2018-02-16T10:23:08.440Z,6.50
2018-02-16T10:25:36.867Z,6.50
2018-02-16T10:28:05.296Z,7.40
2018-02-16T10:30:33.655Z,6.47
2018-02-16T10:33:02.022Z,7.10
2018-02-16T10:35:30.384Z,5.70
2018-02-16T10:37:59.584Z,7.77
2018-02-16T10:40:27.948Z,8.03
2018-02-16T10:42:57.084Z,7.07
2018-02-16T10:45:26.468Z,8.03
2018-02-16T10:47:55.866Z,5.07
2018-02-16T10:50:24.230Z,7.23
2018-02-16T10:52:53.388Z,6.27
2018-02-16T10:55:22.525Z,7.50
2018-02-16T10:57:51.923Z,5.30
2018-02-16T11:00:26.440Z,4.90
2018-02-16T11:03:01.052Z,5.40
2018-02-16T11:05:35.058Z,5.37
2018-02-16T11:08:03.248Z,4.97
2018-02-16T11:10:32.372Z,4.87
2018-02-16T11:13:00.748Z,4.90
2018-02-16T11:15:29.123Z,5.23
2018-02-16T11:17:57.500Z,4.10
2018-02-16T11:20:25.883Z,5.77
2018-02-16T11:22:54.264Z,5.40
2018-02-16T11:25:22.620Z,5.37
2018-02-16T11:27:51.751Z,6.30
2018-02-16T11:30:20.107Z,4.40
2018-02-16T11:32:48.301Z,5.27
2018-02-16T11:35:17.624Z,4.30
2018-02-16T11:37:46.009Z,5.00
2018-02-16T11:40:14.512Z,3.43
2018-02-16T11:42:42.927Z,3.67
2018-02-16T11:45:11.292Z,3.87
2018-02-16T11:47:40.420Z,5.33
2018-02-16T11:50:08.797Z,6.73
2018-02-16T11:52:37.163Z,4.90
2018-02-16T11:55:05.538Z,4.93
2018-02-16T11:57:33.899Z,4.47
2018-02-16T12:00:02.851Z,5.20
2018-02-16T12:02:31.210Z,4.70
2018-02-16T12:04:59.587Z,4.60
2018-02-16T12:07:27.945Z,4.70
2018-02-16T12:09:56.328Z,4.80
2018-02-16T12:12:24.691Z,4.80
2018-02-16T12:14:53.108Z,5.43
2018-02-16T12:17:22.784Z,4.67
2018-02-16T12:19:51.259Z,5.00
2018-02-16T12:22:19.665Z,5.47
2018-02-16T12:24:48.052Z,4.20
2018-02-16T12:27:16.475Z,4.77
2018-02-16T12:29:45.644Z,5.17
2018-02-16T12:32:14.029Z,4.60
2018-02-16T12:34:42.401Z,4.03
2018-02-16T12:37:10.782Z,3.87
2018-02-16T12:39:39.144Z,2.50
2018-02-16T12:42:07.520Z,3.10
2018-02-16T12:44:35.881Z,4.10
2018-02-16T12:47:04.283Z,3.20
2018-02-16T12:49:32.649Z,3.33
2018-02-16T12:52:01.805Z,2.53
2018-02-16T12:54:30.168Z,3.13
2018-02-16T12:56:59.317Z,2.23
2018-02-16T12:59:27.689Z,3.77
2018-02-16T13:01:56.060Z,1.93
2018-02-16T13:04:24.487Z,2.97
2018-02-16T13:06:52.861Z,2.30
2018-02-16T13:09:21.233Z,3.37
2018-02-16T13:11:49.598Z,2.80
2018-02-16T13:14:17.968Z,2.57
2018-02-16T13:16:46.332Z,3.00
2018-02-16T13:19:14.697Z,2.77
2018-02-16T13:21:43.060Z,3.03
2018-02-16T13:24:11.443Z,2.77
2018-02-16T13:26:39.803Z,2.60
2018-02-16T13:29:08.935Z,2.97
2018-02-16T13:31:37.312Z,5.00
2018-02-16T13:34:05.682Z,3.10
2018-02-16T13:36:34.052Z,2.80
2018-02-16T13:39:02.243Z,3.60
2018-02-16T13:41:30.804Z,3.33
2018-02-16T13:43:59.179Z,3.97
2018-02-16T13:46:28.146Z,2.60
2018-02-16T13:48:57.312Z,3.33
2018-02-16T13:51:25.720Z,4.10
2018-02-16T13:53:55.460Z,2.50
2018-02-16T13:56:23.843Z,3.17
2018-02-16T13:58:52.211Z,3.13
2018-02-16T14:01:21.735Z,2.50
2018-02-16T14:03:50.185Z,3.00
2018-02-16T14:06:19.319Z,3.10
2018-02-16T14:08:47.707Z,2.77
2018-02-16T14:11:16.095Z,3.90
2018-02-16T14:13:44.467Z,4.90
2018-02-16T14:16:12.853Z,3.30
2018-02-16T14:18:41.393Z,3.00
2018-02-16T14:21:09.872Z,3.20
2018-02-16T14:23:38.241Z,3.13
2018-02-16T14:26:06.660Z,3.07
2018-02-16T14:28:35.084Z,2.53
2018-02-16T14:31:04.211Z,2.57
2018-02-16T14:33:32.593Z,1.67
2018-02-16T14:36:01.024Z,3.37
2018-02-16T14:38:29.435Z,2.77
2018-02-16T14:40:57.805Z,2.80
2018-02-16T14:43:26.994Z,2.37
2018-02-16T14:45:56.181Z,3.03
2018-02-16T14:48:24.567Z,3.00
2018-02-16T14:50:53.733Z,2.67
2018-02-16T14:53:22.112Z,2.77
2018-02-16T14:55:53.336Z,2.80
2018-02-16T14:58:21.741Z,1.90
2018-02-16T15:00:50.116Z,2.27
2018-02-16T15:03:18.572Z,3.33
2018-02-16T15:05:47.032Z,1.80
2018-02-16T15:08:15.461Z,2.80
2018-02-16T15:10:43.873Z,2.60
2018-02-16T15:13:13.020Z,2.50
2018-02-16T15:15:41.401Z,2.30
2018-02-16T15:18:09.802Z,2.97
2018-02-16T15:20:38.174Z,2.40
2018-02-16T15:23:06.601Z,2.83
2018-02-16T15:25:35.028Z,2.73
2018-02-16T15:28:03.405Z,1.83
2018-02-16T15:30:31.579Z,3.07
2018-02-16T15:32:59.971Z,2.50
2018-02-16T15:35:28.358Z,2.67
2018-02-16T15:37:57.551Z,2.90
2018-02-16T15:40:26.740Z,2.90
2018-02-16T15:42:55.124Z,2.60
2018-02-16T15:45:24.319Z,3.40
2018-02-16T15:47:52.829Z,2.10
2018-02-16T15:50:21.209Z,2.37
2018-02-16T15:52:49.652Z,2.70
2018-02-16T15:55:18.880Z,2.43
2018-02-16T15:57:48.032Z,2.97
2018-02-16T16:00:17.231Z,3.37
2018-02-16T16:02:45.632Z,3.07
2018-02-16T16:05:14.875Z,3.10
2018-02-16T16:07:43.337Z,2.33
2018-02-16T16:10:11.733Z,4.03
2018-02-16T16:12:40.155Z,2.60
2018-02-16T16:15:08.651Z,2.50
2018-02-16T16:17:37.041Z,2.87
2018-02-16T16:20:06.273Z,2.90
2018-02-16T16:22:34.643Z,2.57
2018-02-16T16:25:03.739Z,2.57
2018-02-16T16:27:32.116Z,2.40
2018-02-16T16:30:00.511Z,2.67
2018-02-16T16:32:28.897Z,3.33
2018-02-16T16:34:57.295Z,2.47
2018-02-16T16:37:25.766Z,3.17
2018-02-16T16:39:54.160Z,2.73
2018-02-16T16:42:22.536Z,2.93
2018-02-16T16:44:50.916Z,3.50
2018-02-16T16:47:19.362Z,2.50
2018-02-16T16:49:47.772Z,2.63
2018-02-16T16:52:16.368Z,2.60
2018-02-16T16:54:45.669Z,2.57
2018-02-16T16:57:15.188Z,1.90
2018-02-16T16:59:44.347Z,3.30
2018-02-16T17:02:12.764Z,3.67
2018-02-16T17:04:41.914Z,2.90
2018-02-16T17:07:10.949Z,3.20
2018-02-16T17:09:39.489Z,3.57
2018-02-16T17:12:07.904Z,4.43
2018-02-16T17:14:37.148Z,4.50
2018-02-16T17:17:05.517Z,3.50
2018-02-16T17:19:33.998Z,4.07
2018-02-16T17:22:02.477Z,5.30
2018-02-16T17:24:30.888Z,5.30
2018-02-16T17:26:59.277Z,4.20
2018-02-16T17:29:27.646Z,3.80
2018-02-16T17:31:56.016Z,2.90
2018-02-16T17:34:24.508Z,3.33
2018-02-16T17:36:52.982Z,3.90
2018-02-16T17:39:21.359Z,3.87
2018-02-16T17:41:51.068Z,3.20
2018-02-16T17:44:19.576Z,4.73
2018-02-16T17:46:47.997Z,3.70
2018-02-16T17:49:16.385Z,4.60
2018-02-16T17:51:44.781Z,4.93
2018-02-16T17:54:13.168Z,5.03
2018-02-16T17:56:41.536Z,4.30
2018-02-16T17:59:09.920Z,3.60
2018-02-16T18:01:38.321Z,5.10
2018-02-16T18:04:06.706Z,4.13
2018-02-16T18:06:35.857Z,5.33
2018-02-16T18:09:03.387Z,5.53
2018-02-16T18:11:32.603Z,4.53
2018-02-16T18:14:01.006Z,6.07
2018-02-16T18:16:29.408Z,5.90
2018-02-16T18:18:57.809Z,6.53
2018-02-16T18:21:26.957Z,7.07
2018-02-16T18:23:55.324Z,6.80
2018-02-16T18:26:23.727Z,6.07
2018-02-16T18:28:52.110Z,7.20
2018-02-16T18:31:23.403Z,6.60
2018-02-16T18:33:51.803Z,7.30
2018-02-16T18:36:21.317Z,8.03
2018-02-16T18:38:49.714Z,9.57
2018-02-16T18:41:19.187Z,9.20
2018-02-16T18:43:47.815Z,9.67
2018-02-16T18:46:16.186Z,9.50
2018-02-16T18:48:44.560Z,7.77
2018-02-16T18:51:13.015Z,7.67
2018-02-16T18:53:41.426Z,10.23
2018-02-16T18:56:09.792Z,9.60
2018-02-16T18:58:38.260Z,10.70
2018-02-16T19:01:11.607Z,8.70
2018-02-16T19:03:40.781Z,10.57
2018-02-16T19:06:10.012Z,10.07
2018-02-16T19:08:38.440Z,9.50
2018-02-16T19:11:06.988Z,7.00
2018-02-16T19:13:35.407Z,8.07
2018-02-16T19:16:03.786Z,9.43
2018-02-16T19:18:33.625Z,9.93
2018-02-16T19:21:02.811Z,8.07
2018-02-16T19:23:31.173Z,8.70
2018-02-16T19:26:00.343Z,7.63
2018-02-16T19:28:28.738Z,8.53
2018-02-16T19:30:57.404Z,6.70
2018-02-16T19:33:25.785Z,7.90
2018-02-16T19:35:54.181Z,8.80
2018-02-16T19:38:22.604Z,9.53
2018-02-16T19:40:51.267Z,8.50
2018-02-16T19:43:20.415Z,8.10
2018-02-16T19:45:48.810Z,7.63
2018-02-16T19:48:17.239Z,7.13
2018-02-16T19:50:45.924Z,5.15
2018-02-16T19:53:14.573Z,7.60
2018-02-16T19:55:42.976Z,6.87
2018-02-16T19:58:12.121Z,6.10
2018-02-16T20:00:40.241Z,7.70
2018-02-16T20:03:08.889Z,6.10
2018-02-16T20:05:37.568Z,6.55
2018-02-16T20:08:05.776Z,8.07
2018-02-16T20:10:34.427Z,7.80
2018-02-16T20:13:02.849Z,8.17
2018-02-16T20:15:31.490Z,6.95
2018-02-16T20:18:00.934Z,6.82
2018-02-16T20:20:30.128Z,6.23
2018-02-16T20:22:58.780Z,7.22
2018-02-16T20:25:27.416Z,6.00
2018-02-16T20:27:56.093Z,6.60
2018-02-16T20:30:24.731Z,7.10
2018-02-16T20:32:53.110Z,5.57
2018-02-16T20:35:21.736Z,6.18
2018-02-16T20:37:50.385Z,5.28
2018-02-16T20:40:19.036Z,8.80
2018-02-16T20:42:48.129Z,7.78
2018-02-16T20:45:16.514Z,7.20
2018-02-16T20:47:46.016Z,6.70
2018-02-16T20:50:14.409Z,8.33
2018-02-16T20:52:43.122Z,8.63
2018-02-16T20:55:12.291Z,8.50
2018-02-16T20:57:40.785Z,8.37
2018-02-16T21:00:09.212Z,7.50
2018-02-16T21:02:37.641Z,7.80
2018-02-16T21:05:06.296Z,6.97
2018-02-16T21:07:34.950Z,7.20
2018-02-16T21:10:03.953Z,7.60
2018-02-16T21:12:32.424Z,7.30
2018-02-16T21:15:01.098Z,6.60
2018-02-16T21:17:29.801Z,6.55
2018-02-16T21:19:58.603Z,6.15
2018-02-16T21:22:27.320Z,6.20
2018-02-16T21:24:56.012Z,6.80
2018-02-16T21:27:25.459Z,8.13
2018-02-16T21:29:54.117Z,6.45
2018-02-16T21:32:23.396Z,5.97
2018-02-16T21:34:51.864Z,7.10
2018-02-16T21:37:21.716Z,5.75
2018-02-16T21:39:50.179Z,6.80
2018-02-16T21:42:18.815Z,4.75
2018-02-16T21:44:47.508Z,4.57
2018-02-16T21:47:16.651Z,5.70
2018-02-16T21:49:45.737Z,6.20
2018-02-16T21:52:14.721Z,4.00
2018-02-16T21:54:44.172Z,2.03
2018-02-16T21:57:12.890Z,3.10
2018-02-16T21:59:41.657Z,3.92
2018-02-16T22:02:10.471Z,4.50
2018-02-16T22:04:40.616Z,4.15
2018-02-16T22:07:09.271Z,5.10
2018-02-16T22:09:38.702Z,4.90
2018-02-16T22:12:07.344Z,3.10
2018-02-16T22:14:35.995Z,3.90
2018-02-16T22:17:04.375Z,3.20
2018-02-16T22:19:33.027Z,3.83
2018-02-16T22:22:01.660Z,4.45
2018-02-16T22:24:30.351Z,4.35
2018-02-16T22:26:59.005Z,4.53
2018-02-16T22:29:27.704Z,5.87
2018-02-16T22:31:56.386Z,4.53
2018-02-16T22:34:25.708Z,4.00
2018-02-16T22:36:54.365Z,5.55
2018-02-16T22:39:23.000Z,5.60
2018-02-16T22:41:52.431Z,4.90
2018-02-16T22:44:21.088Z,4.30
2018-02-16T22:46:50.551Z,6.30
2018-02-16T22:49:19.210Z,6.40
2018-02-16T22:51:47.963Z,6.45
2018-02-16T22:54:17.441Z,5.70
2018-02-16T22:56:46.082Z,5.70
2018-02-16T22:59:14.716Z,5.50
2018-02-16T23:01:43.369Z,4.30
2018-02-16T23:04:12.071Z,4.57
2018-02-16T23:06:40.715Z,4.50
2018-02-16T23:09:09.339Z,4.47
2018-02-16T23:11:37.996Z,3.53
2018-02-16T23:14:06.632Z,3.65
2018-02-16T23:16:35.277Z,4.80
2018-02-16T23:19:03.920Z,4.28
2018-02-16T23:21:33.334Z,4.60
2018-02-16T23:24:01.784Z,5.80
2018-02-16T23:26:30.435Z,3.78
2018-02-16T23:28:59.080Z,4.50
2018-02-16T23:31:27.855Z,4.18
2018-02-16T23:33:57.269Z,3.40
2018-02-16T23:36:25.938Z,3.65
2018-02-16T23:38:55.507Z,3.90
2018-02-16T23:41:24.179Z,3.42
2018-02-16T23:43:52.425Z,3.33
2018-02-16T23:46:21.061Z,3.40
2018-02-16T23:48:49.704Z,3.92
2018-02-16T23:51:18.384Z,4.65
2018-02-16T23:53:46.781Z,3.27
2018-02-16T23:56:15.405Z,3.92
2018-02-16T23:58:44.053Z,4.75
